Pateros, WA (98846)

8:27 PM PDT on March 28, 2015 (GMT -0700)
Wildcat Ridge | | Change Station
CLOSE
Current Station
Personal Weather Station
Location: Twisp, WA
Elevation: 2789 ft
Nearby Weather Stations

Elev 2789 ft 48.35 °N, 120.13 °W | Updated 2 seconds ago

Mostly Cloudy
Mostly Cloudy
49.1 °F
Feels Like 48 °F
N
4.0
Wind Variable Wind from NW

Today
High -- | Low -- °F
--% Chance of Precip.
Yesterday
High -- | Low -- °F
Precip. -- in
6:45 AM 7:23 PM
Waxing Gibbous, 68% visible
Pressure 30.21 in
Visibility 10.0 miles
Clouds Clear
Windchill 48 °F
Dew Point 30 °F
Humidity 47%
Rainfall 0.00 in
Snow Depth Not available.
UV 0 out of 12
Pollen 10.70 out of 12
Air Quality Not available.
Flu Activity Not available.
METAR KOMK 290253Z AUTO 21003KT 10SM CLR 13/M02 A3020 RMK AO2 SLP229 T01281022 51023

More Conditions Fewer Conditions

Pressure 30.21 in
Visibility 10.0 miles
Clouds Clear
Windchill 48 °F
Dew Point 30 °F
Humidity 47%
Rainfall 0.00 in
Snow Depth Not available.
UV 0 out of 12
Pollen 10.70 out of 12
Air Quality Not available.
Flu Activity Not available.
METAR KOMK 290253Z AUTO 21003KT 10SM CLR 13/M02 A3020 RMK AO2 SLP229 T01281022 51023

More Conditions Fewer Conditions

10-Day Weather Forecast

Almanac

Astronomy

Mar. 28, 2015 Rise Set
Actual Time
Civil Twilight
Nautical Twilight
Astronomical Twilight
Moon
Length of Visible Light
Length of Day
Tomorrow will be .
, % of the Moon is Illuminated

Today's Extremes

State Highs State Lows

Community

WunderPhotos

Upload Photos

1,809,174 photos uploaded!

WunderBlogs® & News

Nearby

Air Quality

  Air Quality AQ Index Pollutant
Not available.

Snow Depth

Station Depth Elevation

Earthquake Activity

City Distance Mag. Time & Date
Minimum magnitude displayed is 2.5.

Coastal Water Temperatures

Place Temperature

Stations

Nearby Weather Stations

Station Location Temp. Windchill Dew Point Humidity Wind Precip. Elev Updated Type